createdAt,value
2022-09-15T00:01:20.735Z,98815.69
2022-09-15T00:03:49.287Z,98814.23
2022-09-15T00:06:17.409Z,98805.10
2022-09-15T00:08:45.158Z,98801.90
2022-09-15T00:11:20.362Z,98794.33
2022-09-15T00:13:48.308Z,98786.92
2022-09-15T00:16:18.333Z,98780.42
2022-09-15T00:18:46.299Z,98774.48
2022-09-15T00:21:15.461Z,98776.59
2022-09-15T00:23:43.401Z,98775.21
2022-09-15T00:26:12.610Z,98776.96
2022-09-15T00:28:40.409Z,98774.66
2022-09-15T00:31:09.782Z,98779.47
2022-09-15T00:33:37.841Z,98775.46
2022-09-15T00:36:10.892Z,98777.80
2022-09-15T00:38:39.318Z,98772.98
2022-09-15T00:41:08.478Z,98773.81
2022-09-15T00:43:49.115Z,98778.65
2022-09-15T00:46:20.830Z,98780.51
2022-09-15T00:48:51.939Z,98773.17
2022-09-15T00:51:20.898Z,98777.70
2022-09-15T00:53:48.868Z,98775.09
2022-09-15T00:56:19.860Z,98776.05
2022-09-15T00:58:55.612Z,98776.97
2022-09-15T01:01:23.996Z,98783.37
2022-09-15T01:03:55.865Z,98783.57
2022-09-15T01:06:32.218Z,98781.06
2022-09-15T01:09:12.062Z,98783.69
2022-09-15T01:11:39.829Z,98789.52
2022-09-15T01:14:08.060Z,98789.80
2022-09-15T01:16:52.258Z,98790.00
2022-09-15T01:19:32.362Z,98792.25
2022-09-15T01:22:18.806Z,98785.88
2022-09-15T01:25:02.028Z,98787.46
2022-09-15T01:27:48.457Z,98794.70
2022-09-15T01:30:19.243Z,98795.48
2022-09-15T01:33:07.222Z,98796.08
2022-09-15T01:35:38.017Z,98792.91
2022-09-15T01:38:14.776Z,98791.01
2022-09-15T01:40:51.002Z,98791.31
2022-09-15T01:43:20.279Z,98788.67
2022-09-15T01:45:48.315Z,98788.90
2022-09-15T01:48:18.696Z,98786.51
2022-09-15T01:50:47.380Z,98791.40
2022-09-15T01:53:16.242Z,98796.83
2022-09-15T01:56:07.420Z,98796.50
2022-09-15T01:58:35.529Z,98802.55
2022-09-15T02:01:07.809Z,98802.88
2022-09-15T02:03:39.778Z,98810.86
2022-09-15T02:06:09.206Z,98816.05
2022-09-15T02:08:38.569Z,98820.20
2022-09-15T02:11:18.306Z,98818.09
2022-09-15T02:13:52.224Z,98822.32
2022-09-15T02:16:21.314Z,98819.77
2022-09-15T02:18:56.778Z,98822.02
2022-09-15T02:21:30.052Z,98821.33
2022-09-15T02:24:01.372Z,98828.05
2022-09-15T02:26:29.470Z,98830.30
2022-09-15T02:28:57.226Z,98829.66
2022-09-15T02:31:25.177Z,98830.66
2022-09-15T02:33:58.095Z,98828.05
2022-09-15T02:36:26.025Z,98822.46
2022-09-15T02:38:58.270Z,98823.93
2022-09-15T02:41:29.125Z,98819.86
2022-09-15T02:43:58.155Z,98820.54
2022-09-15T02:46:25.884Z,98818.99
2022-09-15T02:48:57.190Z,98815.98
2022-09-15T02:51:25.618Z,98813.55
2022-09-15T02:53:55.297Z,98816.45
2022-09-15T02:56:23.849Z,98818.16
2022-09-15T02:58:51.592Z,98822.25
2022-09-15T03:01:19.409Z,98828.33
2022-09-15T03:03:47.266Z,98825.02
2022-09-15T03:06:17.746Z,98827.68
2022-09-15T03:08:51.097Z,98825.57
2022-09-15T03:11:20.422Z,98827.09
2022-09-15T03:13:48.560Z,98818.27
2022-09-15T03:16:16.480Z,98826.30
2022-09-15T03:18:44.316Z,98834.80
2022-09-15T03:21:13.510Z,98845.34
2022-09-15T03:23:43.723Z,98846.07
2022-09-15T03:26:11.702Z,98839.35
2022-09-15T03:28:42.509Z,98835.10
2022-09-15T03:31:10.265Z,98844.32
2022-09-15T03:33:39.301Z,98861.25
2022-09-15T03:36:07.391Z,98872.43
2022-09-15T03:38:35.138Z,98885.48
2022-09-15T03:41:07.589Z,98892.20
2022-09-15T03:43:38.781Z,98893.52
2022-09-15T03:46:07.034Z,98886.74
2022-09-15T03:48:37.574Z,98876.29
2022-09-15T03:51:06.805Z,98874.91
2022-09-15T03:53:36.227Z,98880.63
2022-09-15T03:56:08.516Z,98880.69
2022-09-15T03:58:38.677Z,98876.05
2022-09-15T04:01:06.656Z,98873.36
2022-09-15T04:03:40.250Z,98871.48
2022-09-15T04:06:11.547Z,98871.20
2022-09-15T04:08:39.449Z,98878.48
2022-09-15T04:11:09.467Z,98885.30
2022-09-15T04:13:38.228Z,98888.02
2022-09-15T04:16:08.187Z,98889.45
2022-09-15T04:18:36.151Z,98897.73
2022-09-15T04:21:05.951Z,98903.47
2022-09-15T04:23:34.057Z,98911.35
2022-09-15T04:26:06.901Z,98907.65
2022-09-15T04:28:35.550Z,98902.05
2022-09-15T04:31:13.682Z,98909.00
2022-09-15T04:33:42.326Z,98908.79
2022-09-15T04:36:11.266Z,98908.55
2022-09-15T04:38:39.830Z,98909.81
2022-09-15T04:41:08.891Z,98903.67
2022-09-15T04:43:39.213Z,98912.59
2022-09-15T04:46:07.796Z,98911.45
2022-09-15T04:48:35.657Z,98912.02
2022-09-15T04:51:04.283Z,98911.84
2022-09-15T04:53:32.329Z,98907.27
2022-09-15T04:56:08.901Z,98904.88
2022-09-15T04:58:51.331Z,98903.66
2022-09-15T05:01:20.585Z,98903.61
2022-09-15T05:03:50.150Z,98906.40
2022-09-15T05:06:19.401Z,98904.36
2022-09-15T05:08:49.820Z,98903.72
2022-09-15T05:11:18.357Z,98901.24
2022-09-15T05:13:46.598Z,98902.98
2022-09-15T05:16:18.588Z,98906.41
2022-09-15T05:18:46.984Z,98911.59
2022-09-15T05:21:16.260Z,98921.73
2022-09-15T05:23:44.230Z,98929.62
2022-09-15T05:26:14.480Z,98934.34
2022-09-15T05:28:43.060Z,98936.73
2022-09-15T05:31:11.871Z,98940.12
2022-09-15T05:33:40.886Z,98944.92
2022-09-15T05:36:09.011Z,98946.65
2022-09-15T05:38:40.943Z,98951.30
2022-09-15T05:41:10.540Z,98956.30
2022-09-15T05:43:39.666Z,98956.20
2022-09-15T05:46:07.836Z,98958.27
2022-09-15T05:48:35.989Z,98960.69
2022-09-15T05:51:04.443Z,98961.86
2022-09-15T05:53:34.150Z,98959.63
2022-09-15T05:56:03.398Z,98956.89
2022-09-15T05:58:31.919Z,98951.89
2022-09-15T06:01:08.816Z,98955.73
2022-09-15T06:03:36.931Z,98955.02
2022-09-15T06:06:05.446Z,98955.23
2022-09-15T06:08:33.888Z,98952.90
2022-09-15T06:11:02.943Z,98947.21
2022-09-15T06:13:30.824Z,98947.83
2022-09-15T06:16:02.887Z,98946.30
2022-09-15T06:18:30.883Z,98948.38
2022-09-15T06:21:04.940Z,98953.23
2022-09-15T06:23:32.975Z,98951.13
2022-09-15T06:26:04.826Z,98951.16
2022-09-15T06:28:35.536Z,98951.45
2022-09-15T06:31:04.375Z,98955.71
2022-09-15T06:33:32.970Z,98957.00
2022-09-15T06:36:02.168Z,98954.83
2022-09-15T06:38:32.690Z,98960.11
2022-09-15T06:41:00.623Z,98954.31
2022-09-15T06:43:31.741Z,98954.70
2022-09-15T06:46:16.767Z,98949.60
2022-09-15T06:48:48.160Z,98951.00
2022-09-15T06:51:17.436Z,98950.53
2022-09-15T06:53:47.247Z,98954.39
2022-09-15T06:56:19.310Z,98962.83
2022-09-15T06:58:49.496Z,98962.61
2022-09-15T07:01:33.880Z,98964.86
2022-09-15T07:04:02.882Z,98969.73
2022-09-15T07:06:31.480Z,98968.52
2022-09-15T07:08:59.533Z,98967.81
2022-09-15T07:11:29.115Z,98964.26
2022-09-15T07:13:57.110Z,98967.75
2022-09-15T07:16:31.041Z,98983.67
2022-09-15T07:19:01.335Z,98988.42
2022-09-15T07:21:31.868Z,98988.95
2022-09-15T07:24:08.838Z,98995.10
2022-09-15T07:26:36.728Z,98995.58
2022-09-15T07:29:07.447Z,99000.48
2022-09-15T07:31:36.916Z,99005.82
2022-09-15T07:34:07.091Z,99005.23
2022-09-15T07:36:35.294Z,99007.23
2022-09-15T07:39:04.454Z,99008.88
2022-09-15T07:41:32.486Z,99014.51
2022-09-15T07:44:03.546Z,99020.63
2022-09-15T07:46:32.202Z,99024.64
2022-09-15T07:49:03.396Z,99028.18
2022-09-15T07:51:31.615Z,99026.95
2022-09-15T07:53:59.431Z,99029.23
2022-09-15T07:56:29.891Z,99034.13
2022-09-15T07:58:58.420Z,99031.17
2022-09-15T08:01:26.458Z,99033.65
2022-09-15T08:03:56.123Z,99039.50
2022-09-15T08:06:29.382Z,99043.50
2022-09-15T08:09:00.796Z,99045.48
2022-09-15T08:11:31.779Z,99048.69
2022-09-15T08:14:01.403Z,99047.59
2022-09-15T08:16:29.298Z,99044.80
2022-09-15T08:18:57.282Z,99042.87
2022-09-15T08:21:25.885Z,99041.77
2022-09-15T08:23:56.171Z,99044.98
2022-09-15T08:26:25.078Z,99048.48
2022-09-15T08:28:54.350Z,99051.30
2022-09-15T08:31:24.104Z,99051.96
2022-09-15T08:33:53.720Z,99042.54
2022-09-15T08:36:24.593Z,99037.40
2022-09-15T08:38:52.705Z,99037.17
2022-09-15T08:41:23.023Z,99038.52
2022-09-15T08:43:56.989Z,99036.27
2022-09-15T08:46:29.795Z,99031.41
2022-09-15T08:49:30.621Z,99029.82
2022-09-15T08:52:05.437Z,99032.18
2022-09-15T08:54:35.378Z,99030.11
2022-09-15T08:57:03.399Z,99029.27
2022-09-15T08:59:35.394Z,99020.61
2022-09-15T09:02:13.250Z,99015.77
2022-09-15T09:05:28.047Z,99021.13
2022-09-15T09:07:57.847Z,99023.02
2022-09-15T09:10:36.546Z,99021.54
2022-09-15T09:13:09.015Z,99014.15
2022-09-15T09:15:43.945Z,99009.47
2022-09-15T09:18:12.003Z,99010.73
2022-09-15T09:20:55.671Z,99009.08
2022-09-15T09:23:25.169Z,99013.23
2022-09-15T09:25:53.317Z,99013.65
2022-09-15T09:28:28.022Z,99024.23
2022-09-15T09:30:57.912Z,99025.14
2022-09-15T09:33:28.602Z,99027.95
2022-09-15T09:35:58.620Z,99028.50
2022-09-15T09:38:31.353Z,99025.80
2022-09-15T09:41:02.856Z,99024.70
2022-09-15T09:43:32.359Z,99022.31
2022-09-15T09:46:02.070Z,99023.02
2022-09-15T09:48:30.269Z,99025.15
2022-09-15T09:51:01.408Z,99020.33
2022-09-15T09:53:31.298Z,99027.50
2022-09-15T09:56:13.035Z,99031.88
2022-09-15T09:58:44.009Z,99030.16
2022-09-15T10:01:13.660Z,99025.55
2022-09-15T10:03:43.371Z,99023.14
2022-09-15T10:06:14.295Z,99028.60
2022-09-15T10:09:00.689Z,99020.00
2022-09-15T10:11:41.158Z,99021.02
2022-09-15T10:14:16.871Z,99019.54
2022-09-15T10:16:44.806Z,99013.65
2022-09-15T10:19:13.583Z,99011.16
2022-09-15T10:21:41.654Z,99009.47
2022-09-15T10:24:29.767Z,99006.38
2022-09-15T10:27:16.750Z,99012.52
2022-09-15T10:29:44.963Z,99013.55
2022-09-15T10:32:18.327Z,99017.45
2022-09-15T10:34:49.313Z,99016.48
2022-09-15T10:37:23.562Z,99019.17
2022-09-15T10:39:55.364Z,99012.66
2022-09-15T10:42:31.026Z,99011.09
2022-09-15T10:45:03.980Z,99002.79
2022-09-15T10:47:51.769Z,99003.84
2022-09-15T10:50:42.911Z,99003.17
2022-09-15T10:53:10.933Z,99003.25
2022-09-15T10:55:59.043Z,98998.11
2022-09-15T10:58:29.891Z,99003.77
2022-09-15T11:01:01.887Z,99006.45
2022-09-15T11:03:43.705Z,99005.37
2022-09-15T11:06:31.999Z,98997.19
2022-09-15T11:09:06.022Z,98998.42
2022-09-15T11:12:13.594Z,98995.23
2022-09-15T11:14:48.907Z,98994.35
2022-09-15T11:17:22.893Z,98989.52
2022-09-15T11:19:53.658Z,98991.66
2022-09-15T11:22:25.298Z,98981.16
2022-09-15T11:24:58.828Z,98981.99
2022-09-15T11:27:36.717Z,98982.36
2022-09-15T11:30:23.533Z,98976.48
2022-09-15T11:33:04.646Z,98974.24
2022-09-15T11:35:49.163Z,98975.20
2022-09-15T11:38:24.189Z,98977.55
2022-09-15T11:40:57.470Z,98973.76
2022-09-15T11:43:31.261Z,98970.45
2022-09-15T11:45:59.086Z,98972.61
2022-09-15T11:48:39.816Z,98966.68
2022-09-15T11:51:07.489Z,98969.93
2022-09-15T11:53:43.047Z,98964.64
2022-09-15T11:56:14.454Z,98972.05
2022-09-15T11:58:55.022Z,98969.11
2022-09-15T12:01:29.173Z,98970.27
2022-09-15T12:03:59.487Z,98964.39
2022-09-15T12:06:46.395Z,98960.61
2022-09-15T12:09:16.071Z,98962.07
2022-09-15T12:11:47.134Z,98958.27
2022-09-15T12:14:35.575Z,98957.98
2022-09-15T12:17:06.550Z,98956.00
2022-09-15T12:19:46.101Z,98952.54
2022-09-15T12:22:16.802Z,98944.70
2022-09-15T12:24:50.934Z,98942.41
2022-09-15T12:27:20.193Z,98945.52
2022-09-15T12:29:51.506Z,98942.47
2022-09-15T12:32:26.909Z,98942.77
2022-09-15T12:35:07.952Z,98943.96
2022-09-15T12:37:46.871Z,98940.58
2022-09-15T12:40:33.721Z,98934.86
2022-09-15T12:43:16.447Z,98935.98
2022-09-15T12:45:52.770Z,98933.63
2022-09-15T12:48:20.923Z,98931.04
2022-09-15T12:50:55.425Z,98926.33
2022-09-15T12:53:24.706Z,98927.13
2022-09-15T12:55:56.976Z,98930.90
2022-09-15T12:58:24.702Z,98931.85
2022-09-15T13:01:17.032Z,98933.73
2022-09-15T13:06:26.133Z,98930.94
2022-09-15T13:09:06.650Z,98928.63
2022-09-15T13:11:37.413Z,98925.30
2022-09-15T13:14:12.079Z,98923.45
2022-09-15T13:16:40.171Z,98925.95
2022-09-15T13:19:17.164Z,98922.41
2022-09-15T13:21:52.180Z,98922.05
2022-09-15T13:24:38.841Z,98920.48
2022-09-15T13:27:06.745Z,98923.69
2022-09-15T13:29:41.274Z,98927.02
2022-09-15T13:32:29.245Z,98927.86
2022-09-15T13:35:19.564Z,98928.29
2022-09-15T13:38:12.561Z,98925.51
2022-09-15T13:41:05.428Z,98923.20
2022-09-15T13:43:36.279Z,98923.82
2022-09-15T13:46:12.057Z,98926.05
2022-09-15T13:48:47.165Z,98922.34
2022-09-15T13:51:25.743Z,98919.59
2022-09-15T13:53:59.711Z,98912.65
2022-09-15T13:56:35.611Z,98914.03
2022-09-15T13:59:14.091Z,98915.05
2022-09-15T14:01:43.340Z,98909.92
2022-09-15T14:04:21.680Z,98909.16
2022-09-15T14:06:50.279Z,98914.82
2022-09-15T14:09:21.211Z,98915.81
2022-09-15T14:11:49.696Z,98917.05
2022-09-15T14:14:37.249Z,98918.64
2022-09-15T14:17:05.572Z,98918.22
2022-09-15T14:19:34.851Z,98919.02
2022-09-15T14:22:24.833Z,98919.49
2022-09-15T14:24:53.184Z,98921.28
2022-09-15T14:27:22.262Z,98921.00
2022-09-15T14:29:54.531Z,98920.35
2022-09-15T14:32:23.439Z,98915.41
2022-09-15T14:34:51.179Z,98911.77
2022-09-15T14:37:28.605Z,98915.55
2022-09-15T14:39:57.537Z,98916.52
2022-09-15T14:42:41.644Z,98912.10
2022-09-15T14:48:07.944Z,98915.27
2022-09-15T14:50:35.895Z,98910.89
2022-09-15T14:53:04.043Z,98909.85
2022-09-15T14:55:33.940Z,98905.31
2022-09-15T14:58:04.953Z,98898.05
2022-09-15T15:00:34.729Z,98898.91
2022-09-15T15:03:03.371Z,98897.90
2022-09-15T15:05:35.856Z,98905.54
2022-09-15T15:08:04.702Z,98907.89
2022-09-15T15:10:35.887Z,98905.23
2022-09-15T15:13:07.900Z,98903.56
2022-09-15T15:15:37.174Z,98910.11
2022-09-15T15:18:05.722Z,98911.17
2022-09-15T15:20:33.711Z,98909.94
2022-09-15T15:23:11.247Z,98906.67
2022-09-15T15:25:39.132Z,98902.70
2022-09-15T15:28:06.829Z,98903.67
2022-09-15T15:30:36.382Z,98903.46
2022-09-15T15:33:06.930Z,98909.75
2022-09-15T15:35:35.867Z,98902.75
2022-09-15T15:38:05.756Z,98906.65
2022-09-15T15:40:35.486Z,98909.18
2022-09-15T15:43:06.153Z,98915.64
2022-09-15T15:45:35.660Z,98919.70
2022-09-15T15:48:04.486Z,98919.77
2022-09-15T15:50:32.743Z,98923.46
2022-09-15T15:53:02.752Z,98928.97
2022-09-15T15:55:40.237Z,98934.27
2022-09-15T15:58:09.108Z,98934.66
2022-09-15T16:00:40.024Z,98931.23
2022-09-15T16:03:11.261Z,98927.99
2022-09-15T16:05:39.406Z,98930.88
2022-09-15T16:08:10.360Z,98929.92
2022-09-15T16:10:39.389Z,98930.34
2022-09-15T16:13:07.430Z,98926.65
2022-09-15T16:15:35.344Z,98924.30
2022-09-15T16:18:04.277Z,98927.63
2022-09-15T16:20:32.024Z,98931.51
2022-09-15T16:22:59.739Z,98936.85
2022-09-15T16:25:39.020Z,98938.64
2022-09-15T16:28:07.037Z,98941.39
2022-09-15T16:30:35.232Z,98938.28
2022-09-15T16:33:03.083Z,98935.49
2022-09-15T16:35:33.492Z,98938.41
2022-09-15T16:38:04.738Z,98942.33
2022-09-15T16:40:32.725Z,98936.19
2022-09-15T16:43:00.667Z,98934.08
2022-09-15T16:45:38.245Z,98937.55
2022-09-15T16:48:11.643Z,98938.67
2022-09-15T16:50:45.836Z,98934.34
2022-09-15T16:53:18.478Z,98932.26
2022-09-15T16:55:46.494Z,98931.38
2022-09-15T16:58:15.396Z,98938.98
2022-09-15T17:00:43.677Z,98946.49
2022-09-15T17:03:15.160Z,98950.36
2022-09-15T17:05:48.510Z,98947.15
2022-09-15T17:08:20.391Z,98951.02
2022-09-15T17:10:48.669Z,98948.88
2022-09-15T17:13:17.684Z,98950.52
2022-09-15T17:15:45.994Z,98950.94
2022-09-15T17:18:15.603Z,98951.11
2022-09-15T17:20:44.231Z,98950.18
2022-09-15T17:23:25.430Z,98955.10
2022-09-15T17:25:57.693Z,98960.98
2022-09-15T17:28:28.114Z,98964.63
2022-09-15T17:30:57.531Z,98961.86
2022-09-15T17:33:25.931Z,98965.80
2022-09-15T17:35:54.664Z,98968.23
2022-09-15T17:38:23.196Z,98968.69
2022-09-15T17:40:54.652Z,98968.92
2022-09-15T17:43:24.487Z,98969.56
2022-09-15T17:45:54.336Z,98965.52
2022-09-15T17:48:25.751Z,98967.96
2022-09-15T17:50:57.906Z,98967.85
2022-09-15T17:53:31.116Z,98972.23
2022-09-15T17:55:59.253Z,98972.95
2022-09-15T17:58:31.551Z,98983.39
2022-09-15T18:01:01.860Z,98987.23
2022-09-15T18:03:31.239Z,98987.64
2022-09-15T18:06:06.868Z,98991.86
2022-09-15T18:08:38.346Z,98995.57
2022-09-15T18:11:15.569Z,98994.45
2022-09-15T18:13:45.711Z,98993.09
2022-09-15T18:16:15.012Z,98993.81
2022-09-15T18:18:44.607Z,99000.82
2022-09-15T18:21:24.887Z,99001.48
2022-09-15T18:23:53.565Z,99004.77
2022-09-15T18:26:26.493Z,99015.97
2022-09-15T18:28:55.975Z,99010.95
2022-09-15T18:31:24.693Z,99010.30
2022-09-15T18:33:52.901Z,99005.16
2022-09-15T18:36:20.868Z,99005.30
2022-09-15T18:38:50.105Z,99013.81
2022-09-15T18:41:18.777Z,99018.50
2022-09-15T18:43:49.314Z,99014.16
2022-09-15T18:46:18.659Z,99015.67
2022-09-15T18:48:48.111Z,99019.43
2022-09-15T18:51:23.837Z,99018.65
2022-09-15T18:53:57.564Z,99020.75
2022-09-15T18:56:25.668Z,99023.91
2022-09-15T18:58:57.401Z,99031.32
2022-09-15T19:01:28.731Z,99028.67
2022-09-15T19:03:58.129Z,99033.44
2022-09-15T19:06:29.310Z,99035.69
2022-09-15T19:08:57.365Z,99034.27
2022-09-15T19:11:27.371Z,99033.50
2022-09-15T19:13:58.364Z,99031.75
2022-09-15T19:16:46.637Z,99032.91
2022-09-15T19:19:17.766Z,99033.36
2022-09-15T19:21:48.437Z,99030.53
2022-09-15T19:24:19.145Z,99032.57
2022-09-15T19:26:47.343Z,99037.09
2022-09-15T19:29:18.044Z,99036.38
2022-09-15T19:31:46.073Z,99044.13
2022-09-15T19:34:14.806Z,99040.13
2022-09-15T19:36:43.656Z,99042.16
2022-09-15T19:39:13.602Z,99043.27
2022-09-15T19:41:43.168Z,99043.64
2022-09-15T19:44:11.098Z,99047.69
2022-09-15T19:46:39.549Z,99047.12
2022-09-15T19:49:10.237Z,99046.33
2022-09-15T19:51:38.774Z,99046.21
2022-09-15T19:54:07.192Z,99046.14
2022-09-15T19:56:35.561Z,99050.57
2022-09-15T19:59:03.971Z,99053.94
2022-09-15T20:01:32.797Z,99052.66
2022-09-15T20:04:02.187Z,99048.80
2022-09-15T20:06:32.763Z,99052.27
2022-09-15T20:09:05.621Z,99051.28
2022-09-15T20:11:34.086Z,99053.73
2022-09-15T20:14:01.894Z,99057.11
2022-09-15T20:16:32.246Z,99058.06
2022-09-15T20:19:00.662Z,99058.64
2022-09-15T20:21:49.372Z,99057.58
2022-09-15T20:24:19.542Z,99060.21
2022-09-15T20:26:47.538Z,99061.23
2022-09-15T20:29:15.285Z,99061.66
2022-09-15T20:31:46.580Z,99063.14
2022-09-15T20:34:15.204Z,99063.20
2022-09-15T20:36:43.551Z,99060.45
2022-09-15T20:39:13.408Z,99060.95
2022-09-15T20:41:42.275Z,99056.05
2022-09-15T20:44:11.631Z,99053.34
2022-09-15T20:46:39.519Z,99052.98
2022-09-15T20:49:07.937Z,99052.98
2022-09-15T20:51:35.618Z,99047.45
2022-09-15T20:54:03.705Z,99052.06
2022-09-15T20:56:32.236Z,99051.77
2022-09-15T20:59:00.296Z,99052.24
2022-09-15T21:01:29.556Z,99050.48
2022-09-15T21:03:57.384Z,99044.91
2022-09-15T21:06:26.038Z,99048.00
2022-09-15T21:08:56.098Z,99045.34
2022-09-15T21:11:24.818Z,99049.75
2022-09-15T21:13:52.845Z,99051.58
2022-09-15T21:16:21.572Z,99057.94
2022-09-15T21:18:49.743Z,99058.36
2022-09-15T21:21:19.306Z,99059.13
2022-09-15T21:23:48.409Z,99061.30
2022-09-15T21:26:17.178Z,99060.88
2022-09-15T21:28:44.933Z,99062.40
2022-09-15T21:31:14.944Z,99064.55
2022-09-15T21:33:42.951Z,99071.49
2022-09-15T21:36:10.859Z,99070.44
2022-09-15T21:38:40.725Z,99070.10
2022-09-15T21:41:09.799Z,99066.34
2022-09-15T21:43:39.216Z,99073.30
2022-09-15T21:46:08.569Z,99076.45
2022-09-15T21:48:36.288Z,99080.67
2022-09-15T21:51:04.816Z,99080.16
2022-09-15T21:53:33.914Z,99082.13
2022-09-15T21:56:02.071Z,99082.83
2022-09-15T21:58:40.328Z,99084.44
2022-09-15T22:01:13.791Z,99087.80
2022-09-15T22:03:42.388Z,99091.80
2022-09-15T22:06:12.997Z,99099.96
2022-09-15T22:08:40.985Z,99101.54
2022-09-15T22:11:09.037Z,99106.95
2022-09-15T22:13:37.684Z,99110.92
2022-09-15T22:16:06.465Z,99110.26
2022-09-15T22:18:37.482Z,99116.80
2022-09-15T22:21:05.351Z,99115.21
2022-09-15T22:23:34.135Z,99110.35
2022-09-15T22:26:02.543Z,99107.02
2022-09-15T22:28:31.374Z,99107.13
2022-09-15T22:30:59.692Z,99106.14
2022-09-15T22:33:27.727Z,99111.38
2022-09-15T22:35:55.709Z,99117.39
2022-09-15T22:38:23.838Z,99119.56
2022-09-15T22:40:51.698Z,99120.12
2022-09-15T22:43:19.565Z,99122.94
2022-09-15T22:45:47.654Z,99127.91
2022-09-15T22:48:15.400Z,99122.59
2022-09-15T22:50:46.447Z,99117.02
2022-09-15T22:53:15.424Z,99115.35
2022-09-15T22:55:43.831Z,99118.52
2022-09-15T22:58:11.524Z,99123.95
2022-09-15T23:04:10.344Z,99123.42
2022-09-15T23:06:38.103Z,99128.75
2022-09-15T23:09:07.095Z,99126.50
2022-09-15T23:11:35.673Z,99121.87
2022-09-15T23:14:04.380Z,99121.89
2022-09-15T23:16:34.307Z,99120.50
2022-09-15T23:19:02.562Z,99122.89
2022-09-15T23:21:30.534Z,99122.69
2022-09-15T23:23:59.418Z,99120.48
2022-09-15T23:26:29.244Z,99121.22
2022-09-15T23:28:57.412Z,99115.28
2022-09-15T23:31:25.262Z,99115.98
2022-09-15T23:33:53.388Z,99117.86
2022-09-15T23:36:23.245Z,99124.15
2022-09-15T23:38:51.565Z,99127.23
2022-09-15T23:41:20.221Z,99125.88
2022-09-15T23:43:48.997Z,99131.15
2022-09-15T23:46:17.561Z,99127.72
2022-09-15T23:48:45.492Z,99133.39
2022-09-15T23:51:13.212Z,99129.89
2022-09-15T23:53:43.414Z,99132.52
2022-09-15T23:56:11.276Z,99139.11
2022-09-15T23:58:39.749Z,99139.47
